createdAt,value
2023-01-09T00:00:21.828Z,8.50
2023-01-09T00:02:50.574Z,8.50
2023-01-09T00:05:21.309Z,8.50
2023-01-09T00:07:49.764Z,8.40
2023-01-09T00:10:18.402Z,8.50
2023-01-09T00:12:46.847Z,8.40
2023-01-09T00:15:15.488Z,8.40
2023-01-09T00:17:48.218Z,8.40
2023-01-09T00:20:17.302Z,8.40
2023-01-09T00:22:45.791Z,8.30
2023-01-09T00:25:14.475Z,8.30
2023-01-09T00:27:43.066Z,8.30
2023-01-09T00:30:15.341Z,8.30
2023-01-09T00:32:45.516Z,8.20
2023-01-09T00:35:17.991Z,8.20
2023-01-09T00:37:46.443Z,8.10
2023-01-09T00:40:17.415Z,8.10
2023-01-09T00:42:47.886Z,8.10
2023-01-09T00:45:20.258Z,8.00
2023-01-09T00:47:53.255Z,8.00
2023-01-09T00:50:31.967Z,8.00
2023-01-09T00:53:04.577Z,7.90
2023-01-09T00:55:34.591Z,7.90
2023-01-09T00:58:03.168Z,7.90
2023-01-09T01:00:32.083Z,7.90
2023-01-09T01:03:02.617Z,7.80
2023-01-09T01:05:48.948Z,7.80
2023-01-09T01:08:20.383Z,7.80
2023-01-09T01:10:49.765Z,7.80
2023-01-09T01:13:18.546Z,7.80
2023-01-09T01:15:47.938Z,7.70
2023-01-09T01:18:17.926Z,7.70
2023-01-09T01:20:47.018Z,7.60
2023-01-09T01:23:15.518Z,7.60
2023-01-09T01:25:44.524Z,7.60
2023-01-09T01:28:13.140Z,7.60
2023-01-09T01:30:43.221Z,7.60
2023-01-09T01:33:12.491Z,7.60
2023-01-09T01:35:42.581Z,7.50
2023-01-09T01:38:11.341Z,7.60
2023-01-09T01:40:40.896Z,7.60
2023-01-09T01:43:13.544Z,7.60
2023-01-09T01:45:42.166Z,7.60
2023-01-09T01:48:13.565Z,7.60
2023-01-09T01:50:47.350Z,7.60
2023-01-09T01:53:18.242Z,7.60
2023-01-09T01:55:55.327Z,7.60
2023-01-09T01:58:24.253Z,7.60
2023-01-09T02:00:53.211Z,7.60
2023-01-09T02:03:28.383Z,7.60
2023-01-09T02:05:58.455Z,7.60
2023-01-09T02:08:27.551Z,7.60
2023-01-09T02:10:57.307Z,7.60
2023-01-09T02:13:27.675Z,7.60
2023-01-09T02:16:10.566Z,7.60
2023-01-09T02:18:47.667Z,7.60
2023-01-09T02:21:26.195Z,7.60
2023-01-09T02:24:18.204Z,7.50
2023-01-09T02:27:18.438Z,7.50
2023-01-09T02:30:11.630Z,7.40
2023-01-09T02:32:50.623Z,7.30
2023-01-09T02:35:32.711Z,7.20
2023-01-09T02:38:11.554Z,7.10
2023-01-09T02:40:45.560Z,7.10
2023-01-09T02:43:15.017Z,7.00
2023-01-09T02:45:43.326Z,7.00
2023-01-09T02:48:13.678Z,6.90
2023-01-09T02:50:49.203Z,6.90
2023-01-09T02:53:43.661Z,7.00
2023-01-09T02:56:33.038Z,7.00
2023-01-09T02:59:20.199Z,7.10
2023-01-09T03:01:59.900Z,7.20
2023-01-09T03:04:40.631Z,7.30
2023-01-09T03:07:17.090Z,7.30
2023-01-09T03:09:48.497Z,7.30
2023-01-09T03:12:22.123Z,7.30
2023-01-09T03:14:54.119Z,7.30
2023-01-09T03:17:27.492Z,7.30
2023-01-09T03:19:59.235Z,7.30
2023-01-09T03:22:27.726Z,7.30
2023-01-09T03:24:56.265Z,7.30
2023-01-09T03:27:24.915Z,7.30
2023-01-09T03:29:54.905Z,7.10
2023-01-09T03:32:23.486Z,7.00
2023-01-09T03:34:52.146Z,6.90
2023-01-09T03:37:22.303Z,6.80
2023-01-09T03:39:50.898Z,6.80
2023-01-09T03:42:19.427Z,6.70
2023-01-09T03:44:47.953Z,6.70
2023-01-09T03:47:18.912Z,6.70
2023-01-09T03:49:47.424Z,6.70
2023-01-09T03:52:15.910Z,6.60
2023-01-09T03:54:45.875Z,6.60
2023-01-09T03:57:14.502Z,6.50
2023-01-09T03:59:43.342Z,6.50
2023-01-09T04:02:12.064Z,6.40
2023-01-09T04:04:40.860Z,6.40
2023-01-09T04:07:09.422Z,6.40
2023-01-09T04:09:38.411Z,6.30
2023-01-09T04:12:08.784Z,6.30
2023-01-09T04:14:37.509Z,6.30
2023-01-09T04:17:06.037Z,6.30
2023-01-09T04:19:34.665Z,6.20
2023-01-09T04:22:03.277Z,6.10
2023-01-09T04:24:32.509Z,6.10
2023-01-09T04:27:01.106Z,6.00
2023-01-09T04:29:31.108Z,6.00
2023-01-09T04:31:59.532Z,6.00
2023-01-09T04:34:28.137Z,6.00
2023-01-09T04:36:57.626Z,6.00
2023-01-09T04:39:26.172Z,6.00
2023-01-09T04:41:54.751Z,6.00
2023-01-09T04:44:26.352Z,6.00
2023-01-09T04:46:59.113Z,5.90
2023-01-09T04:49:27.918Z,5.80
2023-01-09T04:51:56.821Z,5.80
2023-01-09T04:54:25.263Z,5.90
2023-01-09T04:56:53.905Z,5.80
2023-01-09T04:59:22.565Z,5.90
2023-01-09T05:01:52.465Z,5.90
2023-01-09T05:04:22.658Z,6.00
2023-01-09T05:06:51.290Z,6.10
2023-01-09T05:09:19.867Z,6.30
2023-01-09T05:11:48.289Z,6.30
2023-01-09T05:14:16.833Z,6.40
2023-01-09T05:16:45.292Z,6.50
2023-01-09T05:19:14.060Z,6.60
2023-01-09T05:21:44.022Z,6.70
2023-01-09T05:24:12.397Z,6.80
2023-01-09T05:26:41.036Z,6.90
2023-01-09T05:29:09.406Z,6.90
2023-01-09T05:31:37.959Z,6.90
2023-01-09T05:34:06.600Z,7.00
2023-01-09T05:36:35.198Z,7.00
2023-01-09T05:39:05.792Z,7.10
2023-01-09T05:41:34.515Z,7.10
2023-01-09T05:44:02.988Z,7.10
2023-01-09T05:46:31.465Z,7.10
2023-01-09T05:49:00.039Z,7.10
2023-01-09T05:51:28.585Z,7.20
2023-01-09T05:53:56.989Z,7.20
2023-01-09T05:56:26.983Z,7.20
2023-01-09T05:58:55.417Z,7.20
2023-01-09T06:01:24.252Z,7.20
2023-01-09T06:03:52.671Z,7.20
2023-01-09T06:06:21.362Z,7.30
2023-01-09T06:08:49.967Z,7.30
2023-01-09T06:11:18.566Z,7.30
2023-01-09T06:13:48.488Z,7.30
2023-01-09T06:16:17.119Z,7.30
2023-01-09T06:18:45.603Z,7.20
2023-01-09T06:21:14.104Z,7.20
2023-01-09T06:23:42.669Z,7.20
2023-01-09T06:26:11.103Z,7.20
2023-01-09T06:28:39.586Z,7.20
2023-01-09T06:31:09.457Z,7.20
2023-01-09T06:33:37.959Z,7.30
2023-01-09T06:36:07.267Z,7.30
2023-01-09T06:38:35.624Z,7.30
2023-01-09T06:41:04.145Z,7.30
2023-01-09T06:43:32.952Z,7.40
2023-01-09T06:46:01.499Z,7.40
2023-01-09T06:48:31.577Z,7.50
2023-01-09T06:51:00.040Z,7.50
2023-01-09T06:53:29.131Z,7.50
2023-01-09T06:55:57.716Z,7.50
2023-01-09T06:58:26.193Z,7.60
2023-01-09T07:00:55.837Z,7.60
2023-01-09T07:03:26.945Z,7.60
2023-01-09T07:05:57.037Z,7.60
2023-01-09T07:08:25.776Z,7.70
2023-01-09T07:10:54.483Z,7.70
2023-01-09T07:13:23.091Z,7.70
2023-01-09T07:15:53.852Z,7.70
2023-01-09T07:18:22.524Z,7.80
2023-01-09T07:20:51.228Z,7.90
2023-01-09T07:23:21.565Z,8.00
2023-01-09T07:25:53.317Z,7.90
2023-01-09T07:28:21.891Z,7.80
2023-01-09T07:30:53.795Z,7.80
2023-01-09T07:33:22.381Z,7.80
2023-01-09T07:35:52.920Z,7.80
2023-01-09T07:38:23.138Z,7.70
2023-01-09T07:40:52.931Z,7.80
2023-01-09T07:43:21.408Z,7.80
2023-01-09T07:45:49.973Z,7.70
2023-01-09T07:48:19.698Z,7.60
2023-01-09T07:50:50.208Z,7.50
2023-01-09T07:53:19.030Z,7.50
2023-01-09T07:55:49.299Z,7.40
2023-01-09T07:58:20.120Z,7.40
2023-01-09T08:00:48.861Z,7.40
2023-01-09T08:03:17.571Z,7.40
2023-01-09T08:05:51.142Z,7.40
2023-01-09T08:08:20.109Z,7.40
2023-01-09T08:10:50.237Z,7.40
2023-01-09T08:13:19.276Z,7.40
2023-01-09T08:15:48.053Z,7.50
2023-01-09T08:18:18.750Z,7.50
2023-01-09T08:20:50.346Z,7.60
2023-01-09T08:23:18.969Z,7.60
2023-01-09T08:25:47.968Z,7.60
2023-01-09T08:28:23.208Z,7.60
2023-01-09T08:30:51.903Z,7.60
2023-01-09T08:33:20.594Z,7.70
2023-01-09T08:35:49.457Z,7.70
2023-01-09T08:38:18.165Z,7.80
2023-01-09T08:40:48.768Z,7.80
2023-01-09T08:43:35.271Z,7.80
2023-01-09T08:46:23.083Z,7.90
2023-01-09T08:48:51.612Z,7.80
2023-01-09T08:51:20.539Z,7.80
2023-01-09T08:53:49.804Z,7.80
2023-01-09T08:56:18.767Z,7.80
2023-01-09T08:58:47.616Z,7.70
2023-01-09T09:01:18.004Z,7.70
2023-01-09T09:03:47.127Z,7.70
2023-01-09T09:06:15.685Z,7.60
2023-01-09T09:08:44.283Z,7.60
2023-01-09T09:11:14.318Z,7.60
2023-01-09T09:13:43.236Z,7.60
2023-01-09T09:16:12.042Z,7.60
2023-01-09T09:18:42.339Z,7.60
2023-01-09T09:21:12.188Z,7.70
2023-01-09T09:23:40.766Z,7.70
2023-01-09T09:26:09.330Z,7.70
2023-01-09T09:28:38.657Z,7.80
2023-01-09T09:31:07.769Z,7.80
2023-01-09T09:33:36.643Z,7.80
2023-01-09T09:36:08.340Z,7.90
2023-01-09T09:38:36.979Z,7.90
2023-01-09T09:41:33.059Z,8.00
2023-01-09T09:44:37.555Z,8.00
2023-01-09T09:47:15.245Z,8.10
2023-01-09T09:49:52.805Z,8.10
2023-01-09T09:52:42.242Z,8.20
2023-01-09T09:55:18.904Z,8.30
2023-01-09T09:57:52.148Z,8.30
2023-01-09T10:00:23.697Z,8.40
2023-01-09T10:02:56.556Z,8.40
2023-01-09T10:05:29.822Z,8.40
2023-01-09T10:08:15.413Z,8.40
2023-01-09T10:10:57.302Z,8.50
2023-01-09T10:13:44.442Z,8.50
2023-01-09T10:16:29.129Z,8.60
2023-01-09T10:19:08.475Z,8.80
2023-01-09T10:21:42.857Z,8.90
2023-01-09T10:24:29.902Z,8.90
2023-01-09T10:26:59.719Z,8.90
2023-01-09T10:29:43.247Z,8.90
2023-01-09T10:32:41.217Z,8.90
2023-01-09T10:35:46.954Z,9.00
2023-01-09T10:38:21.525Z,9.10
2023-01-09T10:41:01.473Z,9.10
2023-01-09T10:43:35.431Z,9.20
2023-01-09T10:46:07.514Z,9.20
2023-01-09T10:48:38.962Z,9.40
2023-01-09T10:51:19.225Z,9.30
2023-01-09T10:53:51.796Z,9.20
2023-01-09T10:56:25.519Z,9.10
2023-01-09T10:58:56.084Z,9.10
2023-01-09T11:01:28.552Z,9.10
2023-01-09T11:03:59.341Z,9.10
2023-01-09T11:06:37.956Z,9.10
2023-01-09T11:09:07.571Z,9.00
2023-01-09T11:11:40.924Z,9.10
2023-01-09T11:14:16.165Z,9.10
2023-01-09T11:16:54.127Z,9.00
2023-01-09T11:19:23.815Z,9.00
2023-01-09T11:21:53.029Z,9.00
2023-01-09T11:24:39.041Z,9.10
2023-01-09T11:27:33.504Z,9.10
2023-01-09T11:30:27.937Z,9.10
2023-01-09T11:32:58.341Z,9.10
2023-01-09T11:35:34.823Z,9.00
2023-01-09T11:38:13.217Z,9.00
2023-01-09T11:40:49.746Z,8.90
2023-01-09T11:43:30.877Z,9.00
2023-01-09T11:46:05.804Z,9.00
2023-01-09T11:48:38.233Z,9.00
2023-01-09T11:51:18.706Z,9.00
2023-01-09T11:54:07.819Z,9.00
2023-01-09T11:56:38.539Z,8.90
2023-01-09T11:59:14.683Z,8.90
2023-01-09T12:02:09.852Z,9.00
2023-01-09T12:04:44.756Z,9.20
2023-01-09T12:07:58.524Z,9.30
2023-01-09T12:10:51.491Z,9.30
2023-01-09T12:13:32.554Z,9.30
2023-01-09T12:16:12.811Z,9.20
2023-01-09T12:18:58.691Z,9.30
2023-01-09T12:21:35.107Z,9.40
2023-01-09T12:24:25.316Z,9.30
2023-01-09T12:27:05.456Z,9.30
2023-01-09T12:29:55.654Z,9.20
2023-01-09T12:32:41.580Z,9.00
2023-01-09T12:35:23.319Z,9.00
2023-01-09T12:38:08.584Z,8.80
2023-01-09T12:41:02.280Z,8.70
2023-01-09T12:43:44.223Z,8.60
2023-01-09T12:46:18.103Z,8.30
2023-01-09T12:49:16.707Z,8.30
2023-01-09T12:51:49.555Z,8.20
2023-01-09T12:54:26.112Z,8.10
2023-01-09T12:56:57.986Z,8.00
2023-01-09T12:59:33.638Z,7.90
2023-01-09T13:02:11.524Z,7.90
2023-01-09T13:04:45.617Z,7.90
2023-01-09T13:07:19.199Z,8.00
2023-01-09T13:09:52.266Z,8.10
2023-01-09T13:12:23.738Z,8.10
2023-01-09T13:14:56.199Z,8.10
2023-01-09T13:17:31.567Z,8.20
2023-01-09T13:20:02.339Z,8.10
2023-01-09T13:22:31.115Z,8.10
2023-01-09T13:25:17.440Z,8.10
2023-01-09T13:27:53.885Z,8.20
2023-01-09T13:30:41.330Z,8.30
2023-01-09T13:33:20.182Z,8.20
2023-01-09T13:35:57.581Z,8.30
2023-01-09T13:38:31.112Z,8.30
2023-01-09T13:41:28.237Z,8.30
2023-01-09T13:43:59.862Z,8.30
2023-01-09T13:46:40.529Z,8.30
2023-01-09T13:49:55.525Z,8.40
2023-01-09T13:52:36.863Z,8.50
2023-01-09T13:55:36.247Z,8.60
2023-01-09T13:58:25.488Z,8.80
2023-01-09T14:00:57.375Z,8.90
2023-01-09T14:03:31.544Z,8.90
2023-01-09T14:06:25.645Z,8.80
2023-01-09T14:09:16.926Z,8.80
2023-01-09T14:11:45.809Z,8.70
2023-01-09T14:14:27.295Z,8.70
2023-01-09T14:16:56.207Z,8.60
2023-01-09T14:19:35.090Z,8.50
2023-01-09T14:22:04.748Z,8.50
2023-01-09T14:24:43.051Z,8.50
2023-01-09T14:27:44.925Z,8.50
2023-01-09T14:30:34.504Z,8.40
2023-01-09T14:33:04.749Z,8.40
2023-01-09T14:35:49.738Z,8.50
2023-01-09T14:38:34.697Z,8.50
2023-01-09T14:41:10.694Z,8.50
2023-01-09T14:44:00.338Z,8.50
2023-01-09T14:46:35.765Z,8.40
2023-01-09T14:49:52.674Z,8.40
2023-01-09T14:53:03.168Z,8.40
2023-01-09T15:00:30.351Z,8.30
2023-01-09T15:03:17.126Z,8.30
2023-01-09T15:06:47.945Z,8.30
2023-01-09T15:13:36.141Z,8.30
2023-01-09T15:16:07.550Z,8.20
2023-01-09T15:18:42.992Z,8.00
2023-01-09T15:21:20.113Z,7.90
2023-01-09T15:23:49.217Z,7.90
2023-01-09T15:26:27.902Z,7.80
2023-01-09T15:29:03.377Z,7.80
2023-01-09T15:31:32.509Z,7.70
2023-01-09T15:34:05.740Z,7.70
2023-01-09T15:36:34.924Z,7.60
2023-01-09T15:39:03.752Z,7.60
2023-01-09T15:41:52.572Z,7.50
2023-01-09T15:44:26.138Z,7.50
2023-01-09T15:47:00.189Z,7.50
2023-01-09T15:49:30.977Z,7.50
2023-01-09T15:52:02.835Z,7.40
2023-01-09T15:54:47.214Z,7.40
2023-01-09T15:57:33.380Z,7.40
2023-01-09T16:00:31.743Z,7.40
2023-01-09T16:03:12.941Z,7.30
2023-01-09T16:05:45.247Z,7.30
2023-01-09T16:08:29.487Z,7.30
2023-01-09T16:11:03.328Z,7.20
2023-01-09T16:13:35.963Z,7.30
2023-01-09T16:16:05.188Z,7.20
2023-01-09T16:18:37.574Z,7.20
2023-01-09T16:21:33.392Z,7.20
2023-01-09T16:24:04.865Z,7.20
2023-01-09T16:26:34.677Z,7.20
2023-01-09T16:29:28.976Z,7.20
2023-01-09T16:32:01.748Z,7.20
2023-01-09T16:34:30.963Z,7.20
2023-01-09T16:37:03.011Z,7.20
2023-01-09T16:39:34.239Z,7.30
2023-01-09T16:42:20.618Z,7.30
2023-01-09T16:44:49.439Z,7.30
2023-01-09T16:47:18.496Z,7.30
2023-01-09T16:49:47.459Z,7.30
2023-01-09T16:52:18.920Z,7.30
2023-01-09T16:54:48.197Z,7.30
2023-01-09T16:57:19.707Z,7.30
2023-01-09T16:59:48.787Z,7.30
2023-01-09T17:02:20.433Z,7.30
2023-01-09T17:04:49.775Z,7.30
2023-01-09T17:07:21.562Z,7.20
2023-01-09T17:09:50.283Z,7.20
2023-01-09T17:12:20.502Z,7.30
2023-01-09T17:14:49.768Z,7.20
2023-01-09T17:17:23.001Z,7.20
2023-01-09T17:19:51.981Z,7.10
2023-01-09T17:22:22.298Z,7.10
2023-01-09T17:25:09.063Z,7.20
2023-01-09T17:27:56.312Z,7.20
2023-01-09T17:30:25.617Z,7.00
2023-01-09T17:32:55.008Z,6.70
2023-01-09T17:35:23.739Z,6.30
2023-01-09T17:37:54.225Z,6.00
2023-01-09T17:40:25.020Z,5.90
2023-01-09T17:42:53.782Z,5.90
2023-01-09T17:45:23.323Z,5.90
2023-01-09T17:47:52.635Z,6.00
2023-01-09T17:50:22.866Z,6.20
2023-01-09T17:52:59.301Z,6.30
2023-01-09T17:55:28.948Z,6.40
2023-01-09T17:57:58.400Z,6.50
2023-01-09T18:00:31.199Z,6.60
2023-01-09T18:03:00.448Z,6.60
2023-01-09T18:05:29.614Z,6.70
2023-01-09T18:07:59.993Z,6.70
2023-01-09T18:10:30.637Z,6.70
2023-01-09T18:12:59.374Z,6.70
2023-01-09T18:15:30.960Z,6.70
2023-01-09T18:17:59.874Z,6.70
2023-01-09T18:20:28.960Z,6.70
2023-01-09T18:22:59.312Z,6.70
2023-01-09T18:25:28.352Z,6.60
2023-01-09T18:27:57.891Z,6.60
2023-01-09T18:30:27.048Z,6.70
2023-01-09T18:32:56.408Z,6.70
2023-01-09T18:35:25.345Z,6.70
2023-01-09T18:37:53.965Z,6.60
2023-01-09T18:40:24.088Z,6.60
2023-01-09T18:42:52.792Z,6.60
2023-01-09T18:45:21.192Z,6.50
2023-01-09T18:47:49.834Z,6.50
2023-01-09T18:50:19.012Z,6.50
2023-01-09T18:52:48.054Z,6.50
2023-01-09T18:55:24.433Z,6.50
2023-01-09T18:57:58.454Z,6.50
2023-01-09T19:00:34.970Z,6.50
2023-01-09T19:03:16.247Z,6.60
2023-01-09T19:05:56.797Z,6.60
2023-01-09T19:08:37.472Z,6.70
2023-01-09T19:11:43.775Z,6.70
2023-01-09T19:17:40.548Z,6.70
2023-01-09T19:21:02.999Z,6.60
2023-01-09T19:23:34.639Z,6.60
2023-01-09T19:26:24.264Z,6.60
2023-01-09T19:29:28.577Z,6.50
2023-01-09T19:32:18.488Z,6.40
2023-01-09T19:34:52.042Z,6.30
2023-01-09T19:37:29.711Z,6.30
2023-01-09T19:40:10.006Z,6.40
2023-01-09T19:43:06.288Z,6.30
2023-01-09T19:45:44.262Z,6.30
2023-01-09T19:49:02.387Z,6.30
2023-01-09T19:51:56.636Z,6.30
2023-01-09T19:59:13.492Z,6.50
2023-01-09T20:01:55.674Z,6.50
2023-01-09T20:04:26.917Z,6.60
2023-01-09T20:06:59.814Z,6.60
2023-01-09T20:09:30.238Z,6.60
2023-01-09T20:11:59.028Z,6.60
2023-01-09T20:14:27.984Z,6.70
2023-01-09T20:17:01.104Z,6.70
2023-01-09T20:19:32.749Z,6.70
2023-01-09T20:22:02.065Z,6.70
2023-01-09T20:24:30.654Z,6.70
2023-01-09T20:26:59.195Z,6.80
2023-01-09T20:29:27.779Z,6.80
2023-01-09T20:31:57.929Z,6.80
2023-01-09T20:34:26.509Z,6.80
2023-01-09T20:36:56.102Z,6.80
2023-01-09T20:39:24.729Z,6.80
2023-01-09T20:41:53.344Z,6.80
2023-01-09T20:44:22.060Z,6.80
2023-01-09T20:46:53.716Z,6.80
2023-01-09T20:49:26.021Z,6.80
2023-01-09T20:51:54.661Z,6.80
2023-01-09T20:54:23.641Z,6.70
2023-01-09T20:56:54.015Z,6.70
2023-01-09T20:59:23.001Z,6.60
2023-01-09T21:01:51.745Z,6.60
2023-01-09T21:04:21.091Z,6.50
2023-01-09T21:06:51.144Z,6.50
2023-01-09T21:09:20.487Z,6.50
2023-01-09T21:11:48.971Z,6.50
2023-01-09T21:14:17.665Z,6.50
2023-01-09T21:16:54.038Z,6.50
2023-01-09T21:19:23.253Z,6.50
2023-01-09T21:21:55.789Z,6.60
2023-01-09T21:24:24.671Z,6.60
2023-01-09T21:26:53.336Z,6.60
2023-01-09T21:29:21.880Z,6.60
2023-01-09T21:31:50.308Z,6.60
2023-01-09T21:34:21.040Z,6.50
2023-01-09T21:36:50.216Z,6.50
2023-01-09T21:39:22.389Z,6.50
2023-01-09T21:42:08.036Z,6.50
2023-01-09T21:44:54.105Z,6.60
2023-01-09T21:47:23.008Z,6.60
2023-01-09T21:49:51.691Z,6.60
2023-01-09T21:52:21.112Z,6.50
2023-01-09T21:54:51.308Z,6.50
2023-01-09T21:57:19.870Z,6.50
2023-01-09T21:59:48.293Z,6.60
2023-01-09T22:02:17.191Z,6.60
2023-01-09T22:04:49.160Z,6.60
2023-01-09T22:07:17.739Z,6.60
2023-01-09T22:09:46.178Z,6.60
2023-01-09T22:12:16.339Z,6.50
2023-01-09T22:14:44.784Z,6.40
2023-01-09T22:17:18.239Z,6.40
2023-01-09T22:19:46.693Z,6.30
2023-01-09T22:22:15.618Z,6.30
2023-01-09T22:24:44.436Z,6.30
2023-01-09T22:27:16.860Z,6.30
2023-01-09T22:29:45.532Z,6.20
2023-01-09T22:32:14.009Z,6.20
2023-01-09T22:34:42.735Z,6.10
2023-01-09T22:37:12.224Z,6.00
2023-01-09T22:39:40.964Z,5.90
2023-01-09T22:42:09.473Z,5.90
2023-01-09T22:44:40.002Z,5.80
2023-01-09T22:47:08.832Z,5.80
2023-01-09T22:49:51.714Z,5.70
2023-01-09T22:52:22.756Z,5.70
2023-01-09T22:54:51.136Z,5.70
2023-01-09T22:57:19.644Z,5.60
2023-01-09T22:59:49.624Z,5.70
2023-01-09T23:02:18.253Z,5.60
2023-01-09T23:04:46.907Z,5.60
2023-01-09T23:07:15.569Z,5.60
2023-01-09T23:09:44.185Z,5.60
2023-01-09T23:12:12.694Z,5.60
2023-01-09T23:14:41.285Z,5.50
2023-01-09T23:17:12.522Z,5.50
2023-01-09T23:19:41.081Z,5.50
2023-01-09T23:22:09.823Z,5.50
2023-01-09T23:24:38.560Z,5.50
2023-01-09T23:27:07.872Z,5.40
2023-01-09T23:29:38.348Z,5.30
2023-01-09T23:32:07.777Z,5.30
2023-01-09T23:34:37.778Z,5.20
2023-01-09T23:37:09.252Z,5.20
2023-01-09T23:39:38.001Z,5.20
2023-01-09T23:42:23.663Z,5.20
2023-01-09T23:44:52.191Z,5.20
2023-01-09T23:47:20.770Z,5.10
2023-01-09T23:49:51.019Z,5.10
2023-01-09T23:52:19.535Z,5.10
2023-01-09T23:54:47.993Z,4.90
2023-01-09T23:57:16.545Z,5.00
2023-01-09T23:59:45.098Z,5.10
